Arlington, TX (76017)

5:23 PM CDT on July 30, 2016 (GMT -0500)
Hunter Bend | | Change Station

Elev 653 ft 32.65 °N, 97.16 °W | Updated 7 minutes ago

Clear
Clear
103.5 °F
Feels Like 112 °F
N
4.2
Wind Variable Wind from South

Today
High -- | Low -- °F
--% Chance of Precip.
Yesterday
High -- | Low -- °F
Precip. -- in
Pressure 29.89 in
Visibility 10.0 miles
Clouds Clear
Heat Index 112 °F
Dew Point 70 °F
Humidity 34%
Rainfall 0.02 in
Snow Depth Not available.
6:41 AM 8:27 PM
Waning Crescent, 10% visible
METAR KGKY 302153Z VRB06KT 10SM CLR 36/17 A2992 RMK AO2 SLP120 T03610172
Pressure 29.89 in
Visibility 10.0 miles
Clouds Clear
Heat Index 112 °F
Dew Point 70 °F
Humidity 34%
Rainfall 0.02 in
Snow Depth Not available.
6:41 AM 8:27 PM
Waning Crescent, 10% visible
METAR KGKY 302153Z VRB06KT 10SM CLR 36/17 A2992 RMK AO2 SLP120 T03610172

10-Day Weather Forecast

Almanac

Astronomy

Jul. 30, 2016 Rise Set
Actual Time
Civil Twilight
Nautical Twilight
Astronomical Twilight
Moon
Length of Visible Light
Length of Day
Tomorrow will be .
, % of the Moon is Illuminated

Today's Extremes

State Highs State Lows

Community

WunderPhotos

Upload Photos

1,928,663 photos uploaded!

WunderBlog® & News

Nearby

Air Quality

  Air Quality AQ Index Pollutant
Not available.

Snow Depth

Station Depth Elevation

Earthquake Activity

City Distance Mag. Time & Date
Minimum magnitude displayed is 2.5.

Coastal Water Temperatures

Place Temperature

Stations

Nearby Weather Stations

Station Location Temp. Windchill Dew Point Humidity Wind Precip. Elev Updated Type
                   

Watches & Warnings

There are currently no watches in effect.